Time;durP1;ratioP1;P1;durP2;ratioP2;P2;SDS_P1;SDS_P2;PMS_P1;PMS_P2;Temp;Humidity;BMP_temperature;BMP_pressure;BME280_temperature;BME280_humidity;BME280_pressure;Samples;Min_cycle;Max_cycle;Signal;HPM_P1;HPM_P2
2023/09/10 00:02:28;;;;;;;27.50;21.07;;;18.80;99.90;;;;;;7584503;19;20018;-74
2023/09/10 00:05:00;;;;;;;25.73;21.27;;;18.80;99.90;;;;;;7600874;19;20061;-75
2023/09/10 00:07:33;;;;;;;26.38;22.00;;;18.70;99.90;;;;;;7588604;19;20938;-73
2023/09/10 00:10:05;;;;;;;27.80;21.58;;;18.70;99.90;;;;;;7596213;19;20022;-73
2023/09/10 00:12:38;;;;;;;24.95;20.73;;;18.70;99.90;;;;;;7596752;19;20018;-74
2023/09/10 00:15:10;;;;;;;27.77;21.35;;;18.60;99.90;;;;;;7605443;19;20026;-74
2023/09/10 00:17:42;;;;;;;26.20;23.30;;;18.60;99.90;;;;;;7589178;19;20531;-73
2023/09/10 00:20:15;;;;;;;33.45;24.25;;;18.60;99.90;;;;;;7601417;19;20610;-74
2023/09/10 00:22:47;;;;;;;26.90;23.10;;;18.50;99.90;;;;;;7598709;19;20047;-74
2023/09/10 00:25:19;;;;;;;25.93;21.43;;;18.50;99.90;;;;;;7604277;19;21576;-74
2023/09/10 00:27:52;;;;;;;29.20;22.95;;;18.50;99.90;;;;;;7602499;19;20312;-74
2023/09/10 00:30:26;;;;;;;33.15;23.25;;;18.50;99.90;;;;;;7593226;19;20024;-74
2023/09/10 00:32:58;;;;;;;27.48;22.55;;;18.40;99.90;;;;;;7596779;19;20541;-72
2023/09/10 00:35:31;;;;;;;28.98;24.15;;;18.40;99.90;;;;;;7591418;19;20644;-72
2023/09/10 00:38:03;;;;;;;24.77;21.75;;;18.60;99.90;;;;;;7601354;19;20018;-73
2023/09/10 00:40:35;;;;;;;27.45;23.25;;;18.60;99.90;;;;;;7596510;19;20010;-72
2023/09/10 00:43:08;;;;;;;26.45;22.50;;;18.60;99.90;;;;;;7597644;19;20622;-72
2023/09/10 00:45:40;;;;;;;28.63;23.88;;;18.40;99.90;;;;;;7582347;19;20014;-73
2023/09/10 00:48:12;;;;;;;31.45;25.20;;;18.40;99.90;;;;;;7591730;19;20098;-72
2023/09/10 00:50:45;;;;;;;35.47;26.50;;;18.60;99.90;;;;;;7586804;19;20019;-74
2023/09/10 00:53:18;;;;;;;30.00;23.35;;;18.60;99.90;;;;;;7589072;19;20109;-73
2023/09/10 00:55:51;;;;;;;30.67;24.40;;;18.50;99.90;;;;;;7591394;19;20026;-72
2023/09/10 00:58:24;;;;;;;30.30;24.90;;;18.50;99.90;;;;;;7602100;19;20082;-74
2023/09/10 01:00:56;;;;;;;27.83;24.75;;;18.50;99.90;;;;;;7599463;19;20021;-75
2023/09/10 01:03:30;;;;;;;34.72;26.10;;;18.50;99.90;;;;;;7589518;19;20018;-72
2023/09/10 01:06:03;;;;;;;29.17;24.40;;;18.30;99.90;;;;;;7577521;19;20020;-73
2023/09/10 01:08:36;;;;;;;32.28;23.25;;;18.20;99.90;;;;;;7587734;19;20373;-74
2023/09/10 01:11:31;;;;;;;31.17;24.50;;;18.20;99.90;;;;;;7574711;19;20014;-72
2023/09/10 01:14:18;;;;;;;33.97;26.10;;;18.30;99.90;;;;;;7576205;19;20018;-75
2023/09/10 01:17:02;;;;;;;30.27;24.42;;;18.40;99.90;;;;;;7558709;19;20023;-72
2023/09/10 01:19:52;;;;;;;31.67;23.92;;;18.30;99.90;;;;;;7580914;19;21301;-72
2023/09/10 01:22:33;;;;;;;29.92;23.77;;;18.20;99.90;;;;;;7589887;19;20033;-72
2023/09/10 01:25:06;;;;;;;27.75;24.40;;;18.30;99.90;;;;;;7590051;19;21038;-72
2023/09/10 01:27:38;;;;;;;32.38;25.30;;;18.20;99.90;;;;;;7587962;19;20963;-73
2023/09/10 01:30:11;;;;;;;34.00;26.77;;;18.10;99.90;;;;;;7591862;19;20667;-74
2023/09/10 01:32:56;;;;;;;30.30;23.37;;;18.00;99.90;;;;;;7586047;19;20691;-73
2023/09/10 01:35:52;;;;;;;27.25;23.55;;;18.00;99.90;;;;;;7589231;19;20022;-72
2023/09/10 01:38:55;;;;;;;29.58;22.27;;;18.00;99.90;;;;;;7592242;19;20045;-73
2023/09/10 01:41:31;;;;;;;26.58;21.58;;;18.10;99.90;;;;;;7589535;19;20998;-72
2023/09/10 01:44:05;;;;;;;26.63;20.88;;;18.10;99.90;;;;;;7592656;19;20011;-73
2023/09/10 01:46:38;;;;;;;;;;;18.10;99.90;;;;;;7574425;19;20015;-72
2023/09/10 01:49:10;;;;;;;26.00;22.98;;;18.10;99.90;;;;;;7586613;19;19926;-73
2023/09/10 01:51:43;;;;;;;27.75;22.55;;;18.00;99.90;;;;;;7573941;19;20952;-72
2023/09/10 01:54:15;;;;;;;30.98;24.17;;;18.10;99.90;;;;;;7586557;19;20023;-72
2023/09/10 01:56:47;;;;;;;29.47;23.73;;;18.00;99.90;;;;;;7584147;19;20048;-72
2023/09/10 01:59:20;;;;;;;29.65;25.02;;;17.90;99.90;;;;;;7591113;19;20022;-71
2023/09/10 02:01:52;;;;;;;26.48;22.08;;;18.00;99.90;;;;;;7579588;19;20019;-73
2023/09/10 02:04:24;;;;;;;25.92;21.88;;;18.10;99.90;;;;;;7584961;19;20018;-72
2023/09/10 02:06:57;;;;;;;26.33;22.77;;;18.10;99.90;;;;;;7588742;19;20426;-71
2023/09/10 02:09:29;;;;;;;37.15;24.20;;;18.20;99.90;;;;;;7592647;19;20932;-72
2023/09/10 02:12:02;;;;;;;27.80;24.73;;;18.20;99.90;;;;;;7599425;19;20483;-72
2023/09/10 02:14:34;;;;;;;27.33;24.23;;;18.10;99.90;;;;;;7594768;19;20034;-72
2023/09/10 02:17:08;;;;;;;29.35;23.63;;;18.10;99.90;;;;;;7592611;19;20109;-72
2023/09/10 02:19:40;;;;;;;;;;;18.00;99.90;;;;;;7592256;19;20015;-73
2023/09/10 02:22:12;;;;;;;26.65;22.08;;;17.90;99.90;;;;;;7596954;19;19930;-72
2023/09/10 02:24:50;;;;;;;28.27;22.50;;;17.90;99.90;;;;;;7582372;19;20049;-71
2023/09/10 02:27:22;;;;;;;27.40;23.23;;;17.90;99.90;;;;;;7576197;19;20015;-72
2023/09/10 02:29:54;;;;;;;27.77;23.35;;;18.00;99.90;;;;;;7584522;19;20014;-72
2023/09/10 02:32:27;;;;;;;33.83;26.08;;;17.90;99.90;;;;;;7579816;19;20631;-70
2023/09/10 02:34:59;;;;;;;28.58;22.52;;;17.80;99.90;;;;;;7576620;19;20607;-71
2023/09/10 02:37:32;;;;;;;27.35;22.98;;;17.80;99.90;;;;;;7584282;19;20052;-71
2023/09/10 02:40:07;;;;;;;30.17;22.60;;;17.80;99.90;;;;;;7589881;19;20029;-73
2023/09/10 02:42:39;;;;;;;30.70;24.17;;;17.80;99.90;;;;;;7591151;19;20098;-73
2023/09/10 02:45:12;;;;;;;33.60;23.47;;;17.80;99.90;;;;;;7585770;19;20022;-71
2023/09/10 02:47:45;;;;;;;27.00;23.37;;;17.80;99.90;;;;;;7593417;19;20407;-73
2023/09/10 02:50:18;;;;;;;;;;;17.90;99.90;;;;;;7601077;19;20023;-73
2023/09/10 02:52:50;;;;;;;27.13;22.00;;;17.80;99.90;;;;;;7598115;19;19922;-73
2023/09/10 02:55:26;;;;;;;30.67;23.52;;;17.70;99.90;;;;;;7593498;19;20014;-72
2023/09/10 02:57:58;;;;;;;27.00;21.73;;;17.70;99.90;;;;;;7587810;19;20113;-73
2023/09/10 03:00:31;;;;;;;28.48;22.15;;;17.70;99.90;;;;;;7586056;19;20362;-75
2023/09/10 03:03:04;;;;;;;24.75;21.55;;;17.60;99.90;;;;;;7580412;19;20049;-72
2023/09/10 03:05:36;;;;;;;26.47;21.07;;;17.60;99.90;;;;;;7591954;19;20018;-71
2023/09/10 03:08:09;;;;;;;25.83;21.13;;;17.60;99.90;;;;;;7579312;19;20010;-71
2023/09/10 03:10:41;;;;;;;24.15;20.63;;;17.60;99.90;;;;;;7580518;19;20468;-72
2023/09/10 03:13:13;;;;;;;25.67;20.75;;;17.60;99.90;;;;;;7579594;19;20015;-71
2023/09/10 03:15:48;;;;;;;25.35;21.17;;;17.50;99.90;;;;;;7560190;19;20014;-71
2023/09/10 03:18:21;;;;;;;26.40;22.20;;;17.50;99.90;;;;;;7588997;19;20620;-72
2023/09/10 03:20:54;;;;;;;29.73;21.42;;;17.60;99.90;;;;;;7592571;19;20053;-72
2023/09/10 03:23:27;;;;;;;27.35;21.30;;;17.70;99.90;;;;;;7595575;19;20018;-71
2023/09/10 03:25:59;;;;;;;30.17;22.77;;;17.60;99.90;;;;;;7588097;19;20018;-72
2023/09/10 03:28:32;;;;;;;27.60;22.63;;;17.70;99.90;;;;;;7585285;19;20021;-73
2023/09/10 03:31:06;;;;;;;27.45;23.10;;;17.70;99.90;;;;;;7585643;19;20298;-72
2023/09/10 03:33:39;;;;;;;30.13;23.15;;;17.50;99.90;;;;;;7588284;19;20010;-72
2023/09/10 03:36:11;;;;;;;28.17;21.63;;;17.40;99.90;;;;;;7590956;19;20018;-73
2023/09/10 03:38:44;;;;;;;26.23;22.15;;;17.50;99.90;;;;;;7594377;19;20022;-72
2023/09/10 03:41:16;;;;;;;28.58;21.13;;;17.50;99.90;;;;;;7586643;19;20035;-73
2023/09/10 03:43:49;;;;;;;25.20;21.45;;;17.50;99.90;;;;;;7587370;19;20061;-72
2023/09/10 03:46:21;;;;;;;23.33;20.60;;;17.50;99.90;;;;;;7585317;19;20030;-73
2023/09/10 03:48:53;;;;;;;23.67;20.45;;;17.50;99.90;;;;;;7577656;19;20137;-71
2023/09/10 03:51:27;;;;;;;24.58;21.25;;;17.50;99.90;;;;;;7585407;19;20050;-72
2023/09/10 03:53:59;;;;;;;26.77;22.20;;;17.40;99.90;;;;;;7587056;19;20038;-72
2023/09/10 03:56:32;;;;;;;26.92;23.23;;;17.50;99.90;;;;;;7585518;19;20022;-74
2023/09/10 03:59:07;;;;;;;27.58;22.92;;;17.60;99.90;;;;;;7593571;19;20107;-74
2023/09/10 04:01:40;;;;;;;29.40;24.05;;;17.50;99.90;;;;;;7584845;19;20047;-72
2023/09/10 04:04:12;;;;;;;29.83;23.70;;;17.40;99.90;;;;;;7590894;19;20015;-73
2023/09/10 04:06:45;;;;;;;30.92;23.90;;;17.40;99.90;;;;;;7589201;19;20026;-74
2023/09/10 04:09:17;;;;;;;27.38;23.63;;;17.30;99.90;;;;;;7586965;19;20014;-72
2023/09/10 04:11:49;;;;;;;30.92;24.42;;;17.20;99.90;;;;;;7587878;19;20014;-70
2023/09/10 04:14:22;;;;;;;25.02;20.83;;;17.20;99.90;;;;;;7582401;19;20489;-72
2023/09/10 04:16:54;;;;;;;26.95;21.58;;;17.10;99.90;;;;;;7583381;19;20015;-73
2023/09/10 04:19:26;;;;;;;27.17;22.48;;;17.20;99.90;;;;;;7590500;19;20018;-73
2023/09/10 04:21:58;;;;;;;26.08;21.42;;;17.20;99.90;;;;;;7584512;19;20018;-73
2023/09/10 04:24:31;;;;;;;27.40;21.60;;;17.10;99.90;;;;;;7592570;19;20019;-73
2023/09/10 04:27:03;;;;;;;23.48;19.63;;;17.10;99.90;;;;;;7590702;19;20738;-74
2023/09/10 04:29:36;;;;;;;26.50;22.52;;;17.20;99.90;;;;;;7586424;19;20062;-74
2023/09/10 04:32:08;;;;;;;27.42;20.50;;;17.20;99.90;;;;;;7580150;19;20018;-73
2023/09/10 04:34:41;;;;;;;25.23;21.02;;;17.20;99.90;;;;;;7587241;19;20015;-73
2023/09/10 04:37:13;;;;;;;27.80;21.70;;;17.20;99.90;;;;;;7585233;19;20106;-72
2023/09/10 04:39:46;;;;;;;24.92;20.10;;;17.20;99.90;;;;;;7585692;19;20019;-73
2023/09/10 04:42:18;;;;;;;23.45;20.05;;;17.10;99.90;;;;;;7584360;19;21083;-73
2023/09/10 04:44:51;;;;;;;22.77;19.67;;;17.20;99.90;;;;;;7580538;19;20064;-73
2023/09/10 04:47:23;;;;;;;24.15;19.55;;;17.10;99.90;;;;;;7581661;19;20368;-73
2023/09/10 04:49:56;;;;;;;28.58;20.20;;;17.10;99.90;;;;;;7582095;19;20028;-73
2023/09/10 04:52:28;;;;;;;25.38;22.27;;;17.10;99.90;;;;;;7585566;19;20025;-72
2023/09/10 04:55:00;;;;;;;27.30;21.20;;;17.10;99.90;;;;;;7581382;19;20452;-73
2023/09/10 04:57:33;;;;;;;27.15;22.15;;;17.20;99.90;;;;;;7594611;19;20022;-73
2023/09/10 05:00:08;;;;;;;28.52;22.65;;;17.20;99.90;;;;;;7579967;19;23070;-73
2023/09/10 05:02:41;;;;;;;26.95;20.48;;;17.30;99.90;;;;;;7588330;19;20022;-73
2023/09/10 05:05:16;;;;;;;27.67;22.13;;;17.30;99.90;;;;;;7588254;19;20024;-72
2023/09/10 05:07:49;;;;;;;24.83;19.58;;;17.20;99.90;;;;;;7584642;19;20033;-71
2023/09/10 05:10:22;;;;;;;23.58;19.67;;;17.20;99.90;;;;;;7589079;19;20078;-72
2023/09/10 05:12:55;;;;;;;28.23;19.55;;;17.20;99.90;;;;;;7585163;19;20014;-73
2023/09/10 05:15:27;;;;;;;26.75;19.60;;;17.20;99.90;;;;;;7581066;19;20034;-73
2023/09/10 05:17:59;;;;;;;22.75;19.00;;;17.10;99.90;;;;;;7563025;19;20015;-73
2023/09/10 05:20:32;;;;;;;27.65;20.80;;;17.10;99.90;;;;;;7582663;19;20018;-72
2023/09/10 05:23:05;;;;;;;22.80;18.75;;;17.20;99.90;;;;;;7586120;19;20951;-72
2023/09/10 05:25:38;;;;;;;24.37;19.63;;;17.30;99.90;;;;;;7584739;19;20039;-72
2023/09/10 05:28:11;;;;;;;27.17;20.70;;;17.30;99.90;;;;;;7582214;19;20317;-72
2023/09/10 05:30:43;;;;;;;23.70;20.27;;;17.30;99.90;;;;;;7580173;19;20965;-74
2023/09/10 05:33:16;;;;;;;22.15;18.13;;;17.20;99.90;;;;;;7573407;19;20275;-72
2023/09/10 05:35:58;;;;;;;25.35;19.58;;;17.20;99.90;;;;;;7583323;19;20379;-73
2023/09/10 05:38:32;;;;;;;26.23;19.95;;;17.30;99.90;;;;;;7568772;19;20053;-73
2023/09/10 05:41:05;;;;;;;25.38;20.88;;;17.30;99.90;;;;;;7567147;19;20043;-73
2023/09/10 05:43:38;;;;;;;26.30;21.08;;;17.40;99.90;;;;;;7580294;19;20014;-74
2023/09/10 05:46:10;;;;;;;25.05;22.35;;;17.50;99.90;;;;;;7569415;19;20022;-74
2023/09/10 05:48:43;;;;;;;25.70;21.83;;;17.40;99.90;;;;;;7579919;19;20041;-73
2023/09/10 05:51:15;;;;;;;24.67;21.52;;;17.60;99.90;;;;;;7570734;19;20011;-74
2023/09/10 05:53:48;;;;;;;25.63;21.35;;;17.70;99.90;;;;;;7584107;19;20014;-74
2023/09/10 05:56:20;;;;;;;28.48;20.58;;;17.70;99.90;;;;;;7589892;19;20033;-73
2023/09/10 05:58:54;;;;;;;24.08;21.02;;;17.70;99.90;;;;;;7583195;19;20010;-74
2023/09/10 06:01:26;;;;;;;24.23;20.83;;;17.80;99.90;;;;;;7578968;19;20485;-75
2023/09/10 06:03:59;;;;;;;26.65;21.63;;;17.90;99.90;;;;;;7577888;19;20044;-73
2023/09/10 06:06:32;;;;;;;27.17;21.17;;;18.00;99.90;;;;;;7564218;19;20014;-74
2023/09/10 06:09:04;;;;;;;25.35;21.00;;;18.00;99.90;;;;;;7572752;19;20035;-74
2023/09/10 06:11:37;;;;;;;23.92;20.95;;;18.10;99.90;;;;;;7563402;19;20014;-74
2023/09/10 06:14:09;;;;;;;22.88;20.35;;;18.20;99.90;;;;;;7577934;19;20025;-74
2023/09/10 06:16:42;;;;;;;24.45;20.45;;;18.40;99.90;;;;;;7581551;19;20908;-74
2023/09/10 06:19:15;;;;;;;23.55;19.42;;;18.40;99.90;;;;;;7585168;19;20025;-74
2023/09/10 06:21:48;;;;;;;24.90;19.35;;;18.60;99.90;;;;;;7591617;19;20014;-74
2023/09/10 06:24:20;;;;;;;21.15;18.58;;;18.60;99.90;;;;;;7596294;19;20465;-75
2023/09/10 06:26:53;;;;;;;26.90;19.70;;;18.70;99.90;;;;;;7595980;19;20018;-76
2023/09/10 06:29:28;;;;;;;24.27;19.88;;;18.80;99.90;;;;;;7593024;19;20285;-75
2023/09/10 06:32:01;;;;;;;22.02;19.58;;;19.00;99.90;;;;;;7587271;19;20303;-76
2023/09/10 06:34:34;;;;;;;20.45;18.25;;;19.00;99.90;;;;;;7581538;19;20019;-75
2023/09/10 06:37:07;;;;;;;23.38;19.35;;;19.10;99.90;;;;;;7570451;19;20017;-75
2023/09/10 06:39:39;;;;;;;20.50;18.30;;;19.20;99.90;;;;;;7582953;19;20018;-75
2023/09/10 06:42:13;;;;;;;25.58;19.25;;;19.30;99.90;;;;;;7571852;19;20029;-75
2023/09/10 06:44:59;;;;;;;24.17;18.05;;;19.40;99.90;;;;;;7570022;19;20026;-74
2023/09/10 06:47:32;;;;;;;24.42;18.75;;;19.50;99.90;;;;;;7584559;19;20021;-74
2023/09/10 06:50:05;;;;;;;20.85;17.90;;;19.70;99.90;;;;;;7575945;19;20025;-74
2023/09/10 06:52:40;;;;;;;21.40;17.83;;;19.80;99.90;;;;;;7588367;19;21042;-75
2023/09/10 06:55:14;;;;;;;21.45;18.08;;;19.90;99.90;;;;;;7583579;19;20055;-75
2023/09/10 06:57:46;;;;;;;;;;;20.00;99.90;;;;;;7600693;19;20027;-75
2023/09/10 07:00:19;;;;;;;23.58;18.10;;;20.20;99.90;;;;;;7599826;19;20899;-75
2023/09/10 07:02:51;;;;;;;19.83;17.30;;;20.20;99.90;;;;;;7603293;19;20045;-75
2023/09/10 07:05:24;;;;;;;21.65;18.65;;;20.30;99.90;;;;;;7600093;19;20019;-74
2023/09/10 07:07:57;;;;;;;23.38;17.30;;;20.40;99.90;;;;;;7607252;19;20011;-75
2023/09/10 07:10:29;;;;;;;21.40;17.65;;;20.70;99.90;;;;;;7587250;19;20800;-75
2023/09/10 07:13:07;;;;;;;22.47;17.57;;;20.90;99.90;;;;;;7580112;19;20022;-75
2023/09/10 07:15:40;;;;;;;23.90;16.83;;;21.00;99.90;;;;;;7581129;19;20944;-74
2023/09/10 07:18:12;;;;;;;20.77;16.98;;;21.20;99.90;;;;;;7574910;19;20023;-74
2023/09/10 07:20:44;;;;;;;18.88;16.45;;;21.40;99.90;;;;;;7582061;19;20025;-75
2023/09/10 07:23:17;;;;;;;23.23;16.95;;;21.50;99.90;;;;;;7588423;19;20022;-74
2023/09/10 07:25:49;;;;;;;17.77;15.87;;;21.50;99.90;;;;;;7581879;19;20724;-75
2023/09/10 07:28:22;;;;;;;22.98;16.52;;;21.70;99.90;;;;;;7572516;19;20369;-74
2023/09/10 07:30:54;;;;;;;18.37;16.47;;;21.80;99.90;;;;;;7580339;19;20018;-74
2023/09/10 07:33:26;;;;;;;18.20;16.27;;;21.90;99.90;;;;;;7566278;19;20022;-74
2023/09/10 07:35:59;;;;;;;27.90;17.13;;;22.00;99.90;;;;;;7561061;19;20011;-78
2023/09/10 07:38:33;;;;;;;17.95;15.93;;;22.10;99.90;;;;;;7572729;19;20361;-74
2023/09/10 07:41:05;;;;;;;18.42;15.73;;;22.20;99.90;;;;;;7562154;19;20022;-73
2023/09/10 07:43:37;;;;;;;19.55;15.98;;;22.40;99.90;;;;;;7570073;19;20019;-74
2023/09/10 07:46:10;;;;;;;18.02;16.13;;;22.70;99.90;;;;;;7576145;19;20007;-74
2023/09/10 07:48:42;;;;;;;19.98;15.93;;;22.80;99.90;;;;;;7582006;19;20033;-74
2023/09/10 07:51:14;;;;;;;16.92;15.02;;;23.00;99.90;;;;;;7567489;19;20015;-74
2023/09/10 07:53:46;;;;;;;17.25;15.25;;;23.10;99.90;;;;;;7585384;19;20014;-74
2023/09/10 07:56:18;;;;;;;16.92;15.23;;;23.20;99.90;;;;;;7566985;19;20022;-74
2023/09/10 07:58:51;;;;;;;17.63;14.63;;;23.30;99.90;;;;;;7575602;19;20591;-74
2023/09/10 08:01:23;;;;;;;21.25;15.27;;;23.30;99.90;;;;;;7585139;19;20600;-74
2023/09/10 08:03:55;;;;;;;15.77;14.17;;;23.40;99.90;;;;;;7576794;19;20014;-74
2023/09/10 08:06:28;;;;;;;19.25;15.07;;;23.40;99.90;;;;;;7576744;19;20041;-74
2023/09/10 08:09:00;;;;;;;16.70;14.90;;;23.50;99.90;;;;;;7572755;19;20021;-74
2023/09/10 08:11:33;;;;;;;16.70;15.00;;;23.60;99.90;;;;;;7564160;19;20018;-74
2023/09/10 08:14:06;;;;;;;16.70;14.60;;;23.70;99.90;;;;;;7568603;19;20584;-74
2023/09/10 08:16:38;;;;;;;15.80;14.05;;;23.70;99.90;;;;;;7568996;19;20024;-73
2023/09/10 08:19:10;;;;;;;15.93;14.23;;;23.70;99.90;;;;;;7561508;19;20026;-74
2023/09/10 08:21:43;;;;;;;16.55;14.85;;;23.90;99.90;;;;;;7572702;19;20915;-75
2023/09/10 08:24:16;;;;;;;16.95;14.57;;;23.90;99.90;;;;;;7561218;19;20828;-74
2023/09/10 08:26:48;;;;;;;17.80;14.05;;;23.90;99.90;;;;;;7565805;19;20640;-74
2023/09/10 08:29:20;;;;;;;17.20;14.07;;;24.00;99.90;;;;;;7578105;19;20418;-74
2023/09/10 08:31:52;;;;;;;16.48;14.68;;;24.10;99.90;;;;;;7580391;19;20611;-74
2023/09/10 08:34:26;;;;;;;16.77;15.07;;;24.20;99.90;;;;;;7573082;19;20246;-73
2023/09/10 08:36:58;;;;;;;;;;;24.10;99.90;;;;;;7569666;19;20022;-74
2023/09/10 08:39:30;;;;;;;16.13;14.43;;;24.10;99.90;;;;;;7520352;19;19919;-74
